sensor_id;sensor_type;location;lat;lon;timestamp;pressure;altitude;pressure_sealevel;temperature;humidity
6833;BME280;3454;42.654;23.378;2024-02-16T00:00:56;63438.59;;;4.88;92.10
6833;BME280;3454;42.654;23.378;2024-02-16T00:03:22;63444.00;;;4.93;92.75
6833;BME280;3454;42.654;23.378;2024-02-16T00:05:48;63428.22;;;4.79;94.91
6833;BME280;3454;42.654;23.378;2024-02-16T00:08:17;63429.56;;;4.82;94.18
6833;BME280;3454;42.654;23.378;2024-02-16T00:10:43;63420.06;;;4.71;96.08
6833;BME280;3454;42.654;23.378;2024-02-16T00:13:09;63434.22;;;4.84;93.79
6833;BME280;3454;42.654;23.378;2024-02-16T00:15:35;63433.59;;;4.88;93.23
6833;BME280;3454;42.654;23.378;2024-02-16T00:18:01;63434.75;;;4.85;93.58
6833;BME280;3454;42.654;23.378;2024-02-16T00:20:28;63429.00;;;4.82;94.31
6833;BME280;3454;42.654;23.378;2024-02-16T00:22:54;63435.84;;;4.86;94.15
6833;BME280;3454;42.654;23.378;2024-02-16T00:25:20;63439.66;;;4.89;93.60
6833;BME280;3454;42.654;23.378;2024-02-16T00:27:46;63439.34;;;4.91;93.06
6833;BME280;3454;42.654;23.378;2024-02-16T00:30:12;63440.75;;;4.90;93.49
6833;BME280;3454;42.654;23.378;2024-02-16T00:32:38;63450.22;;;5.01;92.61
6833;BME280;3454;42.654;23.378;2024-02-16T00:35:04;63450.22;;;5.01;92.05
6833;BME280;3454;42.654;23.378;2024-02-16T00:37:29;63446.19;;;4.95;92.54
6833;BME280;3454;42.654;23.378;2024-02-16T00:39:55;63433.38;;;4.86;93.49
6833;BME280;3454;42.654;23.378;2024-02-16T00:42:21;63415.72;;;4.67;95.49
6833;BME280;3454;42.654;23.378;2024-02-16T00:44:51;63388.53;;;4.42;95.08
6833;BME280;3454;42.654;23.378;2024-02-16T00:47:17;63343.41;;;4.00;98.64
6833;BME280;3454;42.654;23.378;2024-02-16T00:49:43;63317.88;;;3.77;99.66
6833;BME280;3454;42.654;23.378;2024-02-16T00:52:09;63341.22;;;3.98;98.16
6833;BME280;3454;42.654;23.378;2024-02-16T00:54:36;63311.91;;;3.71;100.00
6833;BME280;3454;42.654;23.378;2024-02-16T00:57:02;63296.13;;;3.57;100.00
6833;BME280;3454;42.654;23.378;2024-02-16T00:59:31;63320.03;;;3.79;100.00
6833;BME280;3454;42.654;23.378;2024-02-16T01:01:57;63345.81;;;4.05;100.00
6833;BME280;3454;42.654;23.378;2024-02-16T01:04:22;63322.75;;;3.81;100.00
6833;BME280;3454;42.654;23.378;2024-02-16T01:06:49;63302.34;;;3.65;100.00
6833;BME280;3454;42.654;23.378;2024-02-16T01:09:15;63307.00;;;3.67;100.00
6833;BME280;3454;42.654;23.378;2024-02-16T01:11:42;63339.84;;;3.99;99.53
6833;BME280;3454;42.654;23.378;2024-02-16T01:14:07;63361.91;;;4.17;96.23
6833;BME280;3454;42.654;23.378;2024-02-16T01:16:34;63367.56;;;4.25;96.33
6833;BME280;3454;42.654;23.378;2024-02-16T01:19:01;63386.91;;;4.41;94.63
6833;BME280;3454;42.654;23.378;2024-02-16T01:21:27;63387.69;;;4.44;94.48
6833;BME280;3454;42.654;23.378;2024-02-16T01:23:52;63400.50;;;4.53;93.87
6833;BME280;3454;42.654;23.378;2024-02-16T01:26:18;63405.06;;;4.60;92.74
6833;BME280;3454;42.654;23.378;2024-02-16T01:28:44;63398.63;;;4.49;91.92
6833;BME280;3454;42.654;23.378;2024-02-16T01:31:09;63412.47;;;4.64;90.86
6833;BME280;3454;42.654;23.378;2024-02-16T01:33:35;63402.66;;;4.55;91.87
6833;BME280;3454;42.654;23.378;2024-02-16T01:36:02;63396.16;;;4.49;92.09
6833;BME280;3454;42.654;23.378;2024-02-16T01:38:28;63382.78;;;4.39;92.43
6833;BME280;3454;42.654;23.378;2024-02-16T01:40:53;63383.09;;;4.37;92.87
6833;BME280;3454;42.654;23.378;2024-02-16T01:43:23;63380.38;;;4.35;92.71
6833;BME280;3454;42.654;23.378;2024-02-16T01:45:49;63388.00;;;4.42;92.75
6833;BME280;3454;42.654;23.378;2024-02-16T01:48:16;63391.78;;;4.45;93.33
6833;BME280;3454;42.654;23.378;2024-02-16T01:50:45;63386.91;;;4.41;93.48
6833;BME280;3454;42.654;23.378;2024-02-16T01:53:14;63388.00;;;4.42;93.01
6833;BME280;3454;42.654;23.378;2024-02-16T01:55:45;63372.78;;;4.28;93.67
6833;BME280;3454;42.654;23.378;2024-02-16T01:58:11;63378.19;;;4.33;93.39
6833;BME280;3454;42.654;23.378;2024-02-16T02:00:37;63380.91;;;4.35;93.37
6833;BME280;3454;42.654;23.378;2024-02-16T02:03:03;63386.56;;;4.43;92.27
6833;BME280;3454;42.654;23.378;2024-02-16T02:05:29;63390.50;;;4.42;93.12
6833;BME280;3454;42.654;23.378;2024-02-16T02:07:55;63391.78;;;4.45;93.86
6833;BME280;3454;42.654;23.378;2024-02-16T02:10:20;63383.09;;;4.37;93.07
6833;BME280;3454;42.654;23.378;2024-02-16T02:12:47;63391.25;;;4.45;92.93
6833;BME280;3454;42.654;23.378;2024-02-16T02:15:13;63392.91;;;4.46;92.24
6833;BME280;3454;42.654;23.378;2024-02-16T02:17:38;63396.47;;;4.47;92.82
6833;BME280;3454;42.654;23.378;2024-02-16T02:20:05;63392.34;;;4.46;95.01
6833;BME280;3454;42.654;23.378;2024-02-16T02:22:39;63384.19;;;4.38;95.42
6833;BME280;3454;42.654;23.378;2024-02-16T02:25:05;63387.44;;;4.41;94.58
6833;BME280;3454;42.654;23.378;2024-02-16T02:27:30;63394.53;;;4.48;94.94
6833;BME280;3454;42.654;23.378;2024-02-16T02:29:56;63365.69;;;4.21;97.80
6833;BME280;3454;42.654;23.378;2024-02-16T02:32:23;63375.50;;;4.30;98.10
6833;BME280;3454;42.654;23.378;2024-02-16T02:34:49;63380.06;;;4.37;96.06
6833;BME280;3454;42.654;23.378;2024-02-16T02:37:15;63385.28;;;4.39;95.15
6833;BME280;3454;42.654;23.378;2024-02-16T02:39:41;63389.06;;;4.43;94.56
6833;BME280;3454;42.654;23.378;2024-02-16T02:42:07;63387.44;;;4.41;95.60
6833;BME280;3454;42.654;23.378;2024-02-16T02:44:34;63393.97;;;4.47;94.14
6833;BME280;3454;42.654;23.378;2024-02-16T02:47:01;63403.22;;;4.56;92.54
6833;BME280;3454;42.654;23.378;2024-02-16T02:49:26;63391.78;;;4.45;92.64
6833;BME280;3454;42.654;23.378;2024-02-16T02:51:52;63387.75;;;4.39;92.53
6833;BME280;3454;42.654;23.378;2024-02-16T02:54:18;63378.75;;;4.33;94.16
6833;BME280;3454;42.654;23.378;2024-02-16T02:56:43;63359.94;;;4.18;94.57
6833;BME280;3454;42.654;23.378;2024-02-16T02:59:09;63375.81;;;4.28;94.50
6833;BME280;3454;42.654;23.378;2024-02-16T03:01:36;63377.34;;;4.34;92.31
6833;BME280;3454;42.654;23.378;2024-02-16T03:04:03;63372.78;;;4.28;94.32
6833;BME280;3454;42.654;23.378;2024-02-16T03:06:28;63381.47;;;4.36;91.03
6833;BME280;3454;42.654;23.378;2024-02-16T03:08:54;63368.97;;;4.24;91.20
6833;BME280;3454;42.654;23.378;2024-02-16T03:11:20;63361.91;;;4.17;92.49
6833;BME280;3454;42.654;23.378;2024-02-16T03:13:45;63349.41;;;4.06;93.61
6833;BME280;3454;42.654;23.378;2024-02-16T03:16:11;63354.28;;;4.10;94.59
6833;BME280;3454;42.654;23.378;2024-02-16T03:18:37;63361.91;;;4.17;94.40
6833;BME280;3454;42.654;23.378;2024-02-16T03:21:03;63363.53;;;4.19;93.59
6833;BME280;3454;42.654;23.378;2024-02-16T03:23:28;63360.81;;;4.16;93.45
6833;BME280;3454;42.654;23.378;2024-02-16T03:25:54;63354.50;;;4.13;93.98
6833;BME280;3454;42.654;23.378;2024-02-16T03:28:20;63360.47;;;4.18;93.82
6833;BME280;3454;42.654;23.378;2024-02-16T03:30:46;63358.41;;;4.12;94.27
6833;BME280;3454;42.654;23.378;2024-02-16T03:33:12;63348.53;;;4.07;93.76
6833;BME280;3454;42.654;23.378;2024-02-16T03:35:39;63355.38;;;4.11;93.40
6833;BME280;3454;42.654;23.378;2024-02-16T03:38:05;63338.84;;;3.94;93.53
6833;BME280;3454;42.654;23.378;2024-02-16T03:40:31;63341.47;;;4.01;94.35
6833;BME280;3454;42.654;23.378;2024-02-16T03:42:58;63328.72;;;3.87;93.90
6833;BME280;3454;42.654;23.378;2024-02-16T03:45:24;63317.00;;;3.78;96.66
6833;BME280;3454;42.654;23.378;2024-02-16T03:47:50;63317.88;;;3.77;97.34
6833;BME280;3454;42.654;23.378;2024-02-16T03:50:19;63332.22;;;3.92;95.20
6833;BME280;3454;42.654;23.378;2024-02-16T03:52:45;63343.63;;;4.03;94.76
6833;BME280;3454;42.654;23.378;2024-02-16T03:55:11;63344.72;;;4.04;95.83
6833;BME280;3454;42.654;23.378;2024-02-16T03:57:37;63343.09;;;4.02;96.21
6833;BME280;3454;42.654;23.378;2024-02-16T04:00:03;63360.47;;;4.18;94.76
6833;BME280;3454;42.654;23.378;2024-02-16T04:02:31;63342.88;;;4.00;95.46
6833;BME280;3454;42.654;23.378;2024-02-16T04:04:57;63350.47;;;4.07;95.50
6833;BME280;3454;42.654;23.378;2024-02-16T04:07:22;63350.16;;;4.09;94.71
6833;BME280;3454;42.654;23.378;2024-02-16T04:09:50;63357.00;;;4.13;94.40
6833;BME280;3454;42.654;23.378;2024-02-16T04:12:15;63349.59;;;4.08;93.54
6833;BME280;3454;42.654;23.378;2024-02-16T04:14:41;63326.25;;;3.87;92.74
6833;BME280;3454;42.654;23.378;2024-02-16T04:17:08;63284.72;;;3.46;97.37
6833;BME280;3454;42.654;23.378;2024-02-16T04:19:36;63265.16;;;3.28;98.70
6833;BME280;3454;42.654;23.378;2024-02-16T04:22:02;63247.78;;;3.12;99.46
6833;BME280;3454;42.654;23.378;2024-02-16T04:24:29;63245.63;;;3.10;100.00
6833;BME280;3454;42.654;23.378;2024-02-16T04:26:54;63229.53;;;2.97;100.00
6833;BME280;3454;42.654;23.378;2024-02-16T04:29:20;63222.81;;;2.89;100.00
6833;BME280;3454;42.654;23.378;2024-02-16T04:31:45;63230.41;;;2.96;100.00
6833;BME280;3454;42.654;23.378;2024-02-16T04:34:12;63240.72;;;3.05;100.00
6833;BME280;3454;42.654;23.378;2024-02-16T04:36:37;63238.34;;;3.01;100.00
6833;BME280;3454;42.654;23.378;2024-02-16T04:39:03;63256.25;;;3.17;99.89
6833;BME280;3454;42.654;23.378;2024-02-16T04:41:29;63246.41;;;3.13;100.00
6833;BME280;3454;42.654;23.378;2024-02-16T04:43:54;63257.56;;;3.21;99.14
6833;BME280;3454;42.654;23.378;2024-02-16T04:46:20;63250.50;;;3.14;99.27
6833;BME280;3454;42.654;23.378;2024-02-16T04:48:47;63249.72;;;3.11;100.00
6833;BME280;3454;42.654;23.378;2024-02-16T04:51:13;63257.78;;;3.23;99.90
6833;BME280;3454;42.654;23.378;2024-02-16T04:53:39;63220.66;;;2.87;100.00
6833;BME280;3454;42.654;23.378;2024-02-16T04:56:05;63238.56;;;3.03;100.00
6833;BME280;3454;42.654;23.378;2024-02-16T04:58:31;63268.97;;;3.31;100.00
6833;BME280;3454;42.654;23.378;2024-02-16T05:00:57;63257.03;;;3.20;100.00
6833;BME280;3454;42.654;23.378;2024-02-16T05:03:23;63258.09;;;3.21;100.00
6833;BME280;3454;42.654;23.378;2024-02-16T05:05:50;63245.84;;;3.12;100.00
6833;BME280;3454;42.654;23.378;2024-02-16T05:08:17;63269.19;;;3.34;99.94
6833;BME280;3454;42.654;23.378;2024-02-16T05:10:43;63247.25;;;3.11;97.80
6833;BME280;3454;42.654;23.378;2024-02-16T05:13:08;63229.88;;;2.95;98.94
6833;BME280;3454;42.654;23.378;2024-02-16T05:15:34;63226.38;;;2.90;99.53
6833;BME280;3454;42.654;23.378;2024-02-16T05:18:00;63233.13;;;2.98;97.19
6833;BME280;3454;42.654;23.378;2024-02-16T05:20:26;63221.72;;;2.88;98.50
6833;BME280;3454;42.654;23.378;2024-02-16T05:22:51;63215.75;;;2.82;100.00
6833;BME280;3454;42.654;23.378;2024-02-16T05:25:17;63233.44;;;2.96;98.03
6833;BME280;3454;42.654;23.378;2024-02-16T05:27:44;63224.44;;;2.90;97.12
6833;BME280;3454;42.654;23.378;2024-02-16T05:30:11;63214.44;;;2.79;98.74
6833;BME280;3454;42.654;23.378;2024-02-16T05:32:38;63217.38;;;2.84;100.00
6833;BME280;3454;42.654;23.378;2024-02-16T05:35:05;63386.03;;;4.42;100.00
6833;BME280;3454;42.654;23.378;2024-02-16T05:37:37;63406.16;;;4.61;100.00
6833;BME280;3454;42.654;23.378;2024-02-16T05:40:09;63310.25;;;3.70;100.00
6833;BME280;3454;42.654;23.378;2024-02-16T05:42:46;63324.94;;;3.83;100.00
6833;BME280;3454;42.654;23.378;2024-02-16T05:45:13;63344.50;;;4.01;100.00
6833;BME280;3454;42.654;23.378;2024-02-16T05:47:38;63327.09;;;3.85;100.00
6833;BME280;3454;42.654;23.378;2024-02-16T05:50:05;63313.53;;;3.73;100.00
6833;BME280;3454;42.654;23.378;2024-02-16T05:52:32;63270.28;;;3.35;100.00
6833;BME280;3454;42.654;23.378;2024-02-16T05:54:57;63169.06;;;2.39;100.00
6833;BME280;3454;42.654;23.378;2024-02-16T05:57:23;63222.81;;;2.89;100.00
6833;BME280;3454;42.654;23.378;2024-02-16T05:59:50;63242.25;;;3.11;100.00
6833;BME280;3454;42.654;23.378;2024-02-16T06:02:17;63183.19;;;2.52;100.00
6833;BME280;3454;42.654;23.378;2024-02-16T06:04:43;63214.66;;;2.81;100.00
6833;BME280;3454;42.654;23.378;2024-02-16T06:07:09;63245.06;;;3.09;100.00
6833;BME280;3454;42.654;23.378;2024-02-16T06:09:36;63279.81;;;3.41;100.00
6833;BME280;3454;42.654;23.378;2024-02-16T06:12:03;63267.56;;;3.32;100.00
6833;BME280;3454;42.654;23.378;2024-02-16T06:14:33;63300.16;;;3.63;100.00
6833;BME280;3454;42.654;23.378;2024-02-16T06:16:59;63322.22;;;3.81;100.00
6833;BME280;3454;42.654;23.378;2024-02-16T06:19:26;63326.25;;;3.87;100.00
6833;BME280;3454;42.654;23.378;2024-02-16T06:21:54;63339.59;;;3.97;100.00
6833;BME280;3454;42.654;23.378;2024-02-16T06:24:23;63351.78;;;4.10;100.00
6833;BME280;3454;42.654;23.378;2024-02-16T06:26:49;63361.91;;;4.17;100.00
6833;BME280;3454;42.654;23.378;2024-02-16T06:29:17;63360.28;;;4.16;100.00
6833;BME280;3454;42.654;23.378;2024-02-16T06:31:42;63365.38;;;4.23;100.00
6833;BME280;3454;42.654;23.378;2024-02-16T06:34:08;63356.91;;;4.17;99.41
6833;BME280;3454;42.654;23.378;2024-02-16T06:36:42;63343.94;;;4.01;100.00
6833;BME280;3454;42.654;23.378;2024-02-16T06:39:07;63341.53;;;3.96;100.00
6833;BME280;3454;42.654;23.378;2024-02-16T06:41:35;63362.44;;;4.18;100.00
6833;BME280;3454;42.654;23.378;2024-02-16T06:44:04;63355.06;;;4.13;100.00
6833;BME280;3454;42.654;23.378;2024-02-16T06:46:31;63370.38;;;4.23;100.00
6833;BME280;3454;42.654;23.378;2024-02-16T06:48:58;63373.31;;;4.28;100.00
6833;BME280;3454;42.654;23.378;2024-02-16T06:51:38;63391.25;;;4.45;100.00
6833;BME280;3454;42.654;23.378;2024-02-16T06:54:21;63394.19;;;4.50;99.50
6833;BME280;3454;42.654;23.378;2024-02-16T06:56:59;63395.06;;;4.48;99.52
6833;BME280;3454;42.654;23.378;2024-02-16T06:59:35;63382.53;;;4.37;100.00
6833;BME280;3454;42.654;23.378;2024-02-16T07:02:08;63391.78;;;4.45;99.62
6833;BME280;3454;42.654;23.378;2024-02-16T07:04:39;63406.69;;;4.61;100.00
6833;BME280;3454;42.654;23.378;2024-02-16T07:07:13;63409.97;;;4.64;100.00
6833;BME280;3454;42.654;23.378;2024-02-16T07:12:29;63365.94;;;4.23;98.50
6833;BME280;3454;42.654;23.378;2024-02-16T07:15:10;63379.84;;;4.34;97.86
6833;BME280;3454;42.654;23.378;2024-02-16T07:17:42;63384.19;;;4.38;98.54
6833;BME280;3454;42.654;23.378;2024-02-16T07:20:23;63397.00;;;4.48;98.65
6833;BME280;3454;42.654;23.378;2024-02-16T07:22:55;63401.81;;;4.57;97.54
6833;BME280;3454;42.654;23.378;2024-02-16T07:25:22;63411.38;;;4.63;97.84
6833;BME280;3454;42.654;23.378;2024-02-16T07:27:53;63413.88;;;4.63;97.11
6833;BME280;3454;42.654;23.378;2024-02-16T07:30:20;63414.53;;;4.71;97.90
6833;BME280;3454;42.654;23.378;2024-02-16T07:32:50;63430.41;;;4.81;95.72
6833;BME280;3454;42.654;23.378;2024-02-16T07:35:20;63466.31;;;5.14;98.06
6833;BME280;3454;42.654;23.378;2024-02-16T07:37:51;63448.38;;;4.97;94.96
6833;BME280;3454;42.654;23.378;2024-02-16T07:40:24;63403.44;;;4.58;95.80
6833;BME280;3454;42.654;23.378;2024-02-16T07:42:50;63425.22;;;4.78;97.78
6833;BME280;3454;42.654;23.378;2024-02-16T07:45:25;63450.53;;;4.99;98.60
6833;BME280;3454;42.654;23.378;2024-02-16T07:48:01;63466.25;;;5.19;95.37
6833;BME280;3454;42.654;23.378;2024-02-16T07:50:31;63494.84;;;5.43;93.94
6833;BME280;3454;42.654;23.378;2024-02-16T07:53:02;63504.97;;;5.50;92.41
6833;BME280;3454;42.654;23.378;2024-02-16T07:55:28;63493.56;;;5.39;92.47
6833;BME280;3454;42.654;23.378;2024-02-16T07:57:53;63508.78;;;5.53;92.97
6833;BME280;3454;42.654;23.378;2024-02-16T08:00:19;63522.84;;;5.71;87.94
6833;BME280;3454;42.654;23.378;2024-02-16T08:02:45;63519.13;;;5.63;87.65
6833;BME280;3454;42.654;23.378;2024-02-16T08:05:11;63528.06;;;5.73;92.61
6833;BME280;3454;42.654;23.378;2024-02-16T08:07:41;63546.69;;;5.86;93.13
6833;BME280;3454;42.654;23.378;2024-02-16T08:10:10;63516.63;;;5.63;89.78
6833;BME280;3454;42.654;23.378;2024-02-16T08:12:37;63508.78;;;5.53;87.35
6833;BME280;3454;42.654;23.378;2024-02-16T08:15:04;63516.41;;;5.60;88.61
6833;BME280;3454;42.654;23.378;2024-02-16T08:17:36;63556.94;;;6.00;86.87
6833;BME280;3454;42.654;23.378;2024-02-16T08:20:01;63582.00;;;6.23;86.00
6833;BME280;3454;42.654;23.378;2024-02-16T08:22:27;63613.63;;;6.52;86.01
6833;BME280;3454;42.654;23.378;2024-02-16T08:24:53;63602.72;;;6.42;86.09
6833;BME280;3454;42.654;23.378;2024-02-16T08:27:18;63616.34;;;6.55;86.20
6833;BME280;3454;42.654;23.378;2024-02-16T08:29:44;63626.72;;;6.64;83.49
6833;BME280;3454;42.654;23.378;2024-02-16T08:32:10;63668.47;;;7.01;84.78
6833;BME280;3454;42.654;23.378;2024-02-16T08:34:36;63701.38;;;7.33;84.12
6833;BME280;3454;42.654;23.378;2024-02-16T08:37:05;63731.19;;;7.58;83.87
6833;BME280;3454;42.654;23.378;2024-02-16T08:39:32;63763.28;;;7.93;85.74
6833;BME280;3454;42.654;23.378;2024-02-16T08:41:59;63798.53;;;8.23;82.24
6833;BME280;3454;42.654;23.378;2024-02-16T08:44:26;63815.47;;;8.38;80.48
6833;BME280;3454;42.654;23.378;2024-02-16T08:46:53;63828.06;;;8.50;81.74
6833;BME280;3454;42.654;23.378;2024-02-16T08:49:19;63830.75;;;8.53;80.64
6833;BME280;3454;42.654;23.378;2024-02-16T08:51:45;63875.91;;;8.92;80.17
6833;BME280;3454;42.654;23.378;2024-02-16T08:54:11;63890.13;;;9.05;77.70
6833;BME280;3454;42.654;23.378;2024-02-16T08:56:37;63919.06;;;9.31;77.10
6833;BME280;3454;42.654;23.378;2024-02-16T08:59:05;63930.00;;;9.42;74.32
6833;BME280;3454;42.654;23.378;2024-02-16T09:03:57;63865.41;;;8.87;75.28
6833;BME280;3454;42.654;23.378;2024-02-16T09:06:23;63863.00;;;8.82;76.83
6833;BME280;3454;42.654;23.378;2024-02-16T09:08:49;63882.69;;;9.00;72.22
6833;BME280;3454;42.654;23.378;2024-02-16T09:11:14;63934.59;;;9.48;74.64
6833;BME280;3454;42.654;23.378;2024-02-16T09:13:40;63971.78;;;9.82;70.20
6833;BME280;3454;42.654;23.378;2024-02-16T09:16:06;63951.00;;;9.63;70.95
6833;BME280;3454;42.654;23.378;2024-02-16T09:18:33;63933.50;;;9.47;67.77
6833;BME280;3454;42.654;23.378;2024-02-16T09:20:59;63973.94;;;9.84;68.78
6833;BME280;3454;42.654;23.378;2024-02-16T09:23:26;63966.31;;;9.77;64.76
6833;BME280;3454;42.654;23.378;2024-02-16T09:25:52;63994.19;;;10.03;63.72
6833;BME280;3454;42.654;23.378;2024-02-16T09:28:20;64050.78;;;10.57;64.19
6833;BME280;3454;42.654;23.378;2024-02-16T09:30:46;64126.13;;;11.24;63.01
6833;BME280;3454;42.654;23.378;2024-02-16T09:33:13;64179.50;;;11.75;65.43
6833;BME280;3454;42.654;23.378;2024-02-16T09:35:40;64215.44;;;12.06;57.50
6833;BME280;3454;42.654;23.378;2024-02-16T09:38:06;64140.34;;;11.37;56.90
6833;BME280;3454;42.654;23.378;2024-02-16T09:40:32;64082.88;;;10.84;57.20
6833;BME280;3454;42.654;23.378;2024-02-16T09:42:57;64036.34;;;10.42;57.82
6833;BME280;3454;42.654;23.378;2024-02-16T09:45:23;64030.34;;;10.36;57.96
6833;BME280;3454;42.654;23.378;2024-02-16T09:47:52;64032.72;;;10.41;59.18
6833;BME280;3454;42.654;23.378;2024-02-16T09:50:20;64127.00;;;11.23;59.75
6833;BME280;3454;42.654;23.378;2024-02-16T09:52:48;64167.97;;;11.65;57.20
6833;BME280;3454;42.654;23.378;2024-02-16T09:55:15;64107.16;;;11.09;54.97
6833;BME280;3454;42.654;23.378;2024-02-16T09:57:41;64088.88;;;10.90;56.54
6833;BME280;3454;42.654;23.378;2024-02-16T10:00:09;64231.88;;;12.21;57.19
6833;BME280;3454;42.654;23.378;2024-02-16T10:02:47;64330.63;;;13.12;55.06
6833;BME280;3454;42.654;23.378;2024-02-16T10:07:44;64398.91;;;13.77;52.76
6833;BME280;3454;42.654;23.378;2024-02-16T10:10:25;64390.44;;;13.67;50.55
6833;BME280;3454;42.654;23.378;2024-02-16T10:13:04;64381.88;;;13.61;49.33
6833;BME280;3454;42.654;23.378;2024-02-16T10:15:33;64323.72;;;13.08;51.71
6833;BME280;3454;42.654;23.378;2024-02-16T10:18:02;64420.53;;;13.99;50.50
6833;BME280;3454;42.654;23.378;2024-02-16T10:20:29;64445.34;;;14.17;49.13
6833;BME280;3454;42.654;23.378;2024-02-16T10:23:11;64462.41;;;14.32;48.45
6833;BME280;3454;42.654;23.378;2024-02-16T10:25:38;64451.06;;;14.24;47.84
6833;BME280;3454;42.654;23.378;2024-02-16T10:28:08;64486.78;;;14.57;46.31
6833;BME280;3454;42.654;23.378;2024-02-16T10:30:36;64487.13;;;14.55;45.56
6833;BME280;3454;42.654;23.378;2024-02-16T10:33:04;64517.56;;;14.85;45.49
6833;BME280;3454;42.654;23.378;2024-02-16T10:35:30;64542.63;;;15.06;45.39
6833;BME280;3454;42.654;23.378;2024-02-16T10:37:56;64538.47;;;15.04;45.18
6833;BME280;3454;42.654;23.378;2024-02-16T10:40:23;64571.44;;;15.35;44.53
6833;BME280;3454;42.654;23.378;2024-02-16T10:42:50;64613.25;;;15.73;44.65
6833;BME280;3454;42.654;23.378;2024-02-16T10:45:18;64633.63;;;15.91;44.63
6833;BME280;3454;42.654;23.378;2024-02-16T10:47:46;64606.66;;;15.67;41.71
6833;BME280;3454;42.654;23.378;2024-02-16T10:50:12;64588.28;;;15.48;43.55
6833;BME280;3454;42.654;23.378;2024-02-16T10:52:40;64620.75;;;15.77;42.72
6833;BME280;3454;42.654;23.378;2024-02-16T10:55:07;64624.59;;;15.81;42.69
6833;BME280;3454;42.654;23.378;2024-02-16T10:57:36;64672.69;;;16.27;42.06
6833;BME280;3454;42.654;23.378;2024-02-16T11:00:08;64690.63;;;16.41;42.22
6833;BME280;3454;42.654;23.378;2024-02-16T11:02:51;64689.72;;;16.43;42.07
6833;BME280;3454;42.654;23.378;2024-02-16T11:05:18;64728.31;;;16.78;41.50
6833;BME280;3454;42.654;23.378;2024-02-16T11:07:47;64744.28;;;16.93;41.24
6833;BME280;3454;42.654;23.378;2024-02-16T11:10:12;64568.69;;;15.32;41.11
6833;BME280;3454;42.654;23.378;2024-02-16T11:12:43;64607.75;;;15.68;42.65
6833;BME280;3454;42.654;23.378;2024-02-16T11:15:13;64617.66;;;15.77;42.22
6833;BME280;3454;42.654;23.378;2024-02-16T11:17:38;64666.63;;;16.22;41.56
6833;BME280;3454;42.654;23.378;2024-02-16T11:20:07;64710.88;;;16.64;42.02
6833;BME280;3454;42.654;23.378;2024-02-16T11:22:36;64736.56;;;16.86;41.13
6833;BME280;3454;42.654;23.378;2024-02-16T11:25:04;64603.34;;;15.64;41.07
6833;BME280;3454;42.654;23.378;2024-02-16T11:27:31;64583.56;;;15.46;41.47
6833;BME280;3454;42.654;23.378;2024-02-16T11:29:59;64583.34;;;15.43;42.07
6833;BME280;3454;42.654;23.378;2024-02-16T11:32:32;64629.34;;;15.83;42.13
6833;BME280;3454;42.654;23.378;2024-02-16T11:35:08;64653.97;;;16.10;42.39
6833;BME280;3454;42.654;23.378;2024-02-16T11:37:34;64707.94;;;16.59;42.04
6833;BME280;3454;42.654;23.378;2024-02-16T11:40:00;64733.59;;;16.81;40.80
6833;BME280;3454;42.654;23.378;2024-02-16T11:42:26;64702.41;;;16.54;41.81
6833;BME280;3454;42.654;23.378;2024-02-16T11:44:54;64689.19;;;16.42;39.75
6833;BME280;3454;42.654;23.378;2024-02-16T11:47:22;64699.47;;;16.49;39.69
6833;BME280;3454;42.654;23.378;2024-02-16T11:50:08;64718.94;;;16.69;40.53
6833;BME280;3454;42.654;23.378;2024-02-16T11:52:38;64746.66;;;16.97;40.45
6833;BME280;3454;42.654;23.378;2024-02-16T11:55:04;64765.97;;;17.15;39.86
6833;BME280;3454;42.654;23.378;2024-02-16T11:57:35;64680.94;;;16.35;39.44
6833;BME280;3454;42.654;23.378;2024-02-16T12:00:01;64656.16;;;16.12;40.74
6833;BME280;3454;42.654;23.378;2024-02-16T12:02:35;64628.44;;;15.84;41.14
6833;BME280;3454;42.654;23.378;2024-02-16T12:05:02;64683.69;;;16.37;41.08
6833;BME280;3454;42.654;23.378;2024-02-16T12:07:28;64720.59;;;16.71;39.58
6833;BME280;3454;42.654;23.378;2024-02-16T12:09:58;64760.56;;;17.05;39.51
6833;BME280;3454;42.654;23.378;2024-02-16T12:12:24;64774.34;;;17.18;39.52
6833;BME280;3454;42.654;23.378;2024-02-16T12:14:50;64802.66;;;17.46;38.95
6833;BME280;3454;42.654;23.378;2024-02-16T12:17:18;64798.25;;;17.42;38.27
6833;BME280;3454;42.654;23.378;2024-02-16T12:19:49;64812.59;;;17.55;38.24
6833;BME280;3454;42.654;23.378;2024-02-16T12:22:19;64810.06;;;17.55;38.32
6833;BME280;3454;42.654;23.378;2024-02-16T12:24:45;64764.09;;;17.11;37.85
6833;BME280;3454;42.654;23.378;2024-02-16T12:27:11;64796.03;;;17.40;37.75
6833;BME280;3454;42.654;23.378;2024-02-16T12:29:40;64780.63;;;17.26;38.15
6833;BME280;3454;42.654;23.378;2024-02-16T12:32:06;64808.19;;;17.51;38.30
6833;BME280;3454;42.654;23.378;2024-02-16T12:34:35;64803.75;;;17.47;37.91
6833;BME280;3454;42.654;23.378;2024-02-16T12:37:04;64752.19;;;17.02;37.37
6833;BME280;3454;42.654;23.378;2024-02-16T12:39:35;64744.28;;;16.93;37.97
6833;BME280;3454;42.654;23.378;2024-02-16T12:42:01;64752.53;;;17.00;37.91
6833;BME280;3454;42.654;23.378;2024-02-16T12:44:27;64672.69;;;16.27;38.62
6833;BME280;3454;42.654;23.378;2024-02-16T12:46:52;64699.13;;;16.51;39.26
6833;BME280;3454;42.654;23.378;2024-02-16T12:49:17;64682.91;;;16.34;38.58
6833;BME280;3454;42.654;23.378;2024-02-16T12:51:49;64677.63;;;16.32;39.08
6833;BME280;3454;42.654;23.378;2024-02-16T12:54:16;64640.97;;;16.01;39.31
6833;BME280;3454;42.654;23.378;2024-02-16T12:56:45;64611.41;;;15.69;39.51
6833;BME280;3454;42.654;23.378;2024-02-16T12:59:11;64629.56;;;15.85;40.31
6833;BME280;3454;42.654;23.378;2024-02-16T13:01:37;64681.28;;;16.33;39.84
6833;BME280;3454;42.654;23.378;2024-02-16T13:04:03;64671.03;;;16.26;39.40
6833;BME280;3454;42.654;23.378;2024-02-16T13:06:29;64705.16;;;16.57;39.51
6833;BME280;3454;42.654;23.378;2024-02-16T13:08:55;64721.69;;;16.72;39.16
6833;BME280;3454;42.654;23.378;2024-02-16T13:11:20;64639.66;;;15.97;39.54
6833;BME280;3454;42.654;23.378;2024-02-16T13:13:46;64635.59;;;15.91;40.13
6833;BME280;3454;42.654;23.378;2024-02-16T13:16:12;64669.91;;;16.25;39.49
6833;BME280;3454;42.654;23.378;2024-02-16T13:18:37;64695.25;;;16.48;39.63
6833;BME280;3454;42.654;23.378;2024-02-16T13:21:03;64726.31;;;16.78;38.79
6833;BME280;3454;42.654;23.378;2024-02-16T13:23:28;64749.22;;;16.97;39.48
6833;BME280;3454;42.654;23.378;2024-02-16T13:25:56;64785.91;;;17.28;38.75